Time;durP1;ratioP1;P1;durP2;ratioP2;P2;SDS_P1;SDS_P2;PMS_P1;PMS_P2;Temp;Humidity;BMP_temperature;BMP_pressure;BME280_temperature;BME280_humidity;BME280_pressure;Samples;Min_cycle;Max_cycle;Signal;HPM_P1;HPM_P2
2022/05/19 00:01:01;;;;;;;0.77;0.60;;;;;;;9.39;45.65;99913.09;4485871;31;20095;-71
2022/05/19 00:03:29;;;;;;;4.93;0.77;;;;;;;9.47;46.57;99912.59;4485999;31;20133;-71
2022/05/19 00:05:58;;;;;;;2.55;0.90;;;;;;;9.32;46.95;99909.19;4485845;31;20382;-71
2022/05/19 00:08:25;;;;;;;3.37;0.82;;;;;;;9.20;48.30;99910.84;4485779;31;20414;-71
2022/05/19 00:10:55;;;;;;;2.40;0.60;;;;;;;9.05;47.98;99908.28;4485797;31;20134;-71
2022/05/19 00:13:23;;;;;;;1.12;0.68;;;;;;;8.96;47.27;99919.34;4485728;31;20387;-71
2022/05/19 00:15:50;;;;;;;2.58;0.70;;;;;;;8.97;46.23;99915.78;4485770;31;20080;-71
2022/05/19 00:18:18;;;;;;;5.18;0.90;;;;;;;9.01;46.23;99911.19;4485589;31;20610;-71
2022/05/19 00:20:46;;;;;;;4.03;0.93;;;;;;;9.06;46.59;99914.34;4485713;31;20165;-71
2022/05/19 00:23:14;;;;;;;1.77;0.70;;;;;;;9.14;45.71;99911.22;4485495;31;20108;-71
2022/05/19 00:25:42;;;;;;;2.87;1.25;;;;;;;9.17;45.94;99913.66;4485586;31;20119;-71
2022/05/19 00:28:09;;;;;;;1.12;0.50;;;;;;;9.21;45.81;99912.53;4485639;31;20116;-71
2022/05/19 00:30:37;;;;;;;2.72;0.70;;;;;;;9.22;45.78;99914.19;4485833;31;20132;-71
2022/05/19 00:33:04;;;;;;;2.60;0.70;;;;;;;9.12;47.34;99913.94;4484484;32;20144;-71
2022/05/19 00:35:32;;;;;;;1.15;0.60;;;;;;;9.07;47.60;99913.41;4485820;31;20093;-71
2022/05/19 00:37:59;;;;;;;1.70;0.70;;;;;;;9.05;47.40;99913.53;4485729;31;20441;-71
2022/05/19 00:40:27;;;;;;;0.62;0.60;;;;;;;9.14;46.44;99913.84;4485767;32;20088;-71
2022/05/19 00:42:54;;;;;;;1.00;0.65;;;;;;;9.12;45.53;99919.19;4486037;31;20111;-71
2022/05/19 00:45:23;;;;;;;2.55;0.80;;;;;;;9.11;46.61;99916.66;4485522;31;20118;-71
2022/05/19 00:48:15;;;;;;;3.70;0.60;;;;;;;9.15;45.39;99920.75;4486100;31;20092;-71
2022/05/19 00:50:53;;;;;;;1.08;0.57;;;;;;;9.08;46.63;99911.63;4484712;32;20088;-71
2022/05/19 00:53:29;;;;;;;0.95;0.50;;;;;;;8.92;49.41;99914.38;4470925;32;20107;-71
2022/05/19 00:56:00;;;;;;;1.90;0.57;;;;;;;8.78;50.53;99913.50;4484275;32;20103;-71
2022/05/19 00:58:32;;;;;;;1.15;0.82;;;;;;;8.64;50.58;99919.59;4484281;32;20143;-71
2022/05/19 01:00:59;;;;;;;1.73;1.30;;;;;;;8.57;49.34;99915.69;4484169;32;20153;-71
2022/05/19 01:03:28;;;;;;;3.10;0.70;;;;;;;8.57;50.60;99913.09;4485507;31;20590;-71
2022/05/19 01:06:00;;;;;;;1.00;0.70;;;;;;;8.48;51.30;99908.44;4483691;32;20088;-71
2022/05/19 01:08:32;;;;;;;5.75;1.05;;;;;;;8.49;49.75;99905.72;4484124;32;20119;-71
2022/05/19 01:10:59;;;;;;;3.03;0.80;;;;;;;8.59;49.45;99913.81;4483961;32;20091;-71
2022/05/19 01:13:31;;;;;;;1.42;0.65;;;;;;;8.54;50.19;99902.84;4485308;31;20104;-71
2022/05/19 01:15:59;;;;;;;3.00;0.90;;;;;;;8.45;52.16;99908.63;4485163;31;20098;-71
2022/05/19 01:18:29;;;;;;;1.20;0.70;;;;;;;8.39;51.10;99901.97;4485084;31;20537;-71
2022/05/19 01:20:56;;;;;;;1.77;0.75;;;;;;;8.29;52.18;99913.91;4483817;32;20101;-71
2022/05/19 01:23:42;;;;;;;0.88;0.62;;;;;;;8.19;53.29;99911.03;4485244;31;20124;-71
2022/05/19 01:26:35;;;;;;;2.80;0.60;;;;;;;8.15;52.09;99912.16;4485038;31;20513;-71
2022/05/19 01:29:03;;;;;;;1.52;0.62;;;;;;;8.07;53.58;99902.19;4485334;31;20080;-71
2022/05/19 01:31:33;;;;;;;0.70;0.70;;;;;;;8.01;54.54;99899.94;4485306;32;20100;-71
2022/05/19 01:34:02;;;;;;;2.05;0.80;;;;;;;7.93;55.09;99903.03;4485310;31;20072;-71
2022/05/19 01:36:30;;;;;;;0.90;0.52;;;;;;;7.87;55.71;99900.75;4485306;31;20123;-71
2022/05/19 01:39:02;;;;;;;2.15;0.68;;;;;;;7.81;56.14;99896.75;4485190;31;20154;-71
2022/05/19 01:41:34;;;;;;;1.33;0.70;;;;;;;7.74;56.49;99898.06;4485089;31;20111;-71
2022/05/19 01:44:17;;;;;;;0.95;0.65;;;;;;;7.69;56.92;99894.03;4485157;31;20131;-71
2022/05/19 01:46:48;;;;;;;3.20;0.75;;;;;;;7.63;57.97;99898.69;4483845;32;20088;-71
2022/05/19 01:49:34;;;;;;;2.37;0.70;;;;;;;7.51;59.22;99895.94;4485255;32;20119;-71
2022/05/19 01:52:07;;;;;;;0.70;0.60;;;;;;;7.41;59.09;99904.31;4485080;31;20114;-71
2022/05/19 01:54:58;;;;;;;3.33;0.80;;;;;;;7.33;58.38;99903.94;4483492;32;20183;-71
2022/05/19 01:57:33;;;;;;;1.58;0.60;;;;;;;7.29;57.50;99900.63;4483561;32;20084;-71
2022/05/19 02:00:14;;;;;;;3.28;0.80;;;;;;;7.25;57.87;99906.97;4483546;32;20653;-71
2022/05/19 02:02:52;;;;;;;3.75;0.90;;;;;;;7.21;58.67;99902.03;4484966;31;20148;-71
2022/05/19 02:06:01;;;;;;;0.95;0.57;;;;;;;7.13;59.93;99912.03;4483848;31;20123;-71
2022/05/19 02:08:42;;;;;;;0.98;0.77;;;;;;;7.05;59.92;99915.06;4484880;32;20084;-71
2022/05/19 02:11:13;;;;;;;5.80;0.90;;;;;;;7.03;58.38;99911.72;4483587;32;20100;-71
2022/05/19 02:13:40;;;;;;;3.92;0.75;;;;;;;6.96;55.75;99910.37;4483894;32;20791;-71
2022/05/19 02:16:09;;;;;;;2.10;0.80;;;;;;;6.96;55.52;99908.59;4484705;31;20126;-71
2022/05/19 02:18:37;;;;;;;4.28;1.37;;;;;;;7.03;54.34;99903.91;4483589;32;20088;-71
2022/05/19 02:21:06;;;;;;;3.50;0.85;;;;;;;7.07;53.49;99905.38;4484401;31;20168;-71
2022/05/19 02:23:34;;;;;;;4.28;0.80;;;;;;;7.09;53.69;99908.78;4484592;31;20492;-71
2022/05/19 02:26:02;;;;;;;3.78;0.70;;;;;;;7.08;52.92;99909.69;4484440;31;20175;-71
2022/05/19 02:28:30;;;;;;;3.20;1.45;;;;;;;7.10;54.96;99913.03;4484608;31;20159;-71
2022/05/19 02:30:58;;;;;;;4.87;1.10;;;;;;;6.99;57.28;99915.41;4484545;31;20116;-71
2022/05/19 02:33:27;;;;;;;3.95;1.10;;;;;;;6.86;57.80;99916.09;4484561;31;20447;-71
2022/05/19 02:35:55;;;;;;;2.75;0.80;;;;;;;6.75;58.76;99918.44;4484428;31;20462;-71
2022/05/19 02:38:22;;;;;;;1.20;0.70;;;;;;;6.63;57.13;99917.37;4484638;31;20155;-71
2022/05/19 02:40:50;;;;;;;3.58;0.80;;;;;;;6.54;58.12;99921.31;4484379;31;20502;-71
2022/05/19 02:43:18;;;;;;;1.00;0.70;;;;;;;6.45;58.54;99927.03;4484443;32;20110;-71
2022/05/19 02:45:49;;;;;;;1.05;0.60;;;;;;;6.42;58.37;99921.97;4483108;32;20104;-71
2022/05/19 02:48:16;;;;;;;1.35;0.60;;;;;;;6.39;59.28;99922.97;4484267;32;20088;-71
2022/05/19 02:50:45;;;;;;;4.10;0.77;;;;;;;6.29;60.38;99929.59;4484467;31;20156;-71
2022/05/19 02:53:12;;;;;;;1.42;0.93;;;;;;;6.23;59.81;99927.31;4484429;31;20092;-71
2022/05/19 02:55:41;;;;;;;4.22;0.80;;;;;;;6.21;59.37;99932.59;4483878;31;20167;-71
2022/05/19 02:58:10;;;;;;;1.98;0.70;;;;;;;6.21;60.32;99929.16;4484515;31;20167;-71
2022/05/19 03:00:40;;;;;;;6.57;0.90;;;;;;;6.19;61.25;99931.84;4484127;31;20096;-71
2022/05/19 03:03:07;;;;;;;1.02;0.60;;;;;;;6.11;61.80;99928.78;4484164;31;20136;-71
2022/05/19 03:05:35;;;;;;;1.08;0.70;;;;;;;6.09;61.96;99928.03;4483964;31;20093;-71
2022/05/19 03:08:05;;;;;;;1.85;0.52;;;;;;;6.04;61.32;99928.28;4484133;32;20135;-71
2022/05/19 03:10:35;;;;;;;1.67;0.70;;;;;;;6.08;60.25;99934.16;4484013;31;20151;-71
2022/05/19 03:13:04;;;;;;;2.40;0.70;;;;;;;6.10;61.24;99934.94;4483973;32;20480;-71
2022/05/19 03:15:32;;;;;;;1.83;0.77;;;;;;;6.09;64.10;99935.84;4484602;31;20100;-71
2022/05/19 03:18:00;;;;;;;3.35;0.77;;;;;;;6.08;63.62;99934.16;4484959;32;20088;-71
2022/05/19 03:20:27;;;;;;;1.70;0.62;;;;;;;6.07;63.29;99934.22;4486225;31;20119;-71
2022/05/19 03:22:54;;;;;;;3.05;0.70;;;;;;;6.11;63.73;99927.97;4486152;31;20461;-71
2022/05/19 03:25:22;;;;;;;3.60;1.20;;;;;;;6.18;63.73;99939.72;4485719;31;20108;-71
2022/05/19 03:27:49;;;;;;;2.00;0.77;;;;;;;6.24;63.95;99936.81;4486330;31;20106;-71
2022/05/19 03:30:16;;;;;;;2.10;1.05;;;;;;;6.34;64.42;99945.81;4486294;31;20112;-71
2022/05/19 03:32:44;;;;;;;2.42;1.12;;;;;;;6.49;63.18;99943.31;4485916;32;20673;-71
2022/05/19 03:35:13;;;;;;;4.37;1.12;;;;;;;6.62;64.23;99946.09;4486237;31;20080;-71
2022/05/19 03:37:40;;;;;;;3.12;1.15;;;;;;;6.72;65.89;99949.88;4485890;31;20088;-71
2022/05/19 03:40:09;;;;;;;2.53;1.00;;;;;;;6.75;63.76;99953.16;4485884;31;20123;-71
2022/05/19 03:42:36;;;;;;;2.83;1.10;;;;;;;6.90;60.56;99961.03;4484718;32;20378;-71
2022/05/19 03:45:04;;;;;;;2.12;0.90;;;;;;;7.09;59.58;99953.06;4485924;32;20104;-71
2022/05/19 03:47:32;;;;;;;2.53;0.80;;;;;;;7.21;60.03;99962.81;4486187;31;20091;-71
2022/05/19 03:49:59;;;;;;;2.67;1.08;;;;;;;7.36;60.60;99960.25;4486018;31;20099;-71
2022/05/19 03:52:26;;;;;;;6.15;1.10;;;;;;;7.47;60.06;99963.09;4485958;31;20131;-71
2022/05/19 03:54:54;;;;;;;4.50;1.10;;;;;;;7.65;58.78;99963.81;4485723;31;20085;-71
2022/05/19 03:57:23;;;;;;;6.15;1.50;;;;;;;7.81;59.06;99963.72;4485940;31;20095;-71
2022/05/19 03:59:50;;;;;;;0.98;0.77;;;;;;;7.86;61.34;99958.25;4485917;32;20499;-71
2022/05/19 04:02:18;;;;;;;5.43;0.98;;;;;;;7.89;63.14;99964.13;4485973;31;20442;-71
2022/05/19 04:05:02;;;;;;;4.50;1.60;;;;;;;8.01;63.09;99965.19;4485849;31;20177;-71
2022/05/19 04:07:30;;;;;;;3.35;1.15;;;;;;;8.14;63.56;99965.28;4485515;32;20434;-71
2022/05/19 04:09:57;;;;;;;1.48;1.27;;;;;;;8.29;63.22;99966.97;4486139;31;20100;-71
2022/05/19 04:12:26;;;;;;;5.47;1.23;;;;;;;8.44;64.60;99970.44;4485778;31;20506;-71
2022/05/19 04:14:53;;;;;;;4.43;1.30;;;;;;;8.64;64.32;99981.44;4485948;31;20089;-71
2022/05/19 04:17:21;;;;;;;2.65;1.20;;;;;;;8.84;64.45;99985.44;4485515;31;20141;-73
2022/05/19 04:19:48;;;;;;;2.40;1.50;;;;;;;9.03;64.48;99983.34;4485121;31;20124;-72
2022/05/19 04:22:16;;;;;;;2.78;1.25;;;;;;;9.23;64.21;99991.69;4484222;31;20126;-72
2022/05/19 04:24:43;;;;;;;3.10;1.30;;;;;;;9.44;64.77;99992.09;4484294;31;20100;-72
2022/05/19 04:27:12;;;;;;;2.25;1.15;;;;;;;9.67;64.78;99994.97;4484474;31;20140;-72
2022/05/19 04:29:39;;;;;;;2.05;1.25;;;;;;;9.91;65.68;99989.88;4484220;31;20092;-72
2022/05/19 04:32:07;;;;;;;4.50;1.58;;;;;;;10.12;65.29;99993.66;4484602;31;20517;-72
2022/05/19 04:34:34;;;;;;;5.18;1.27;;;;;;;10.37;64.84;99992.06;4483403;32;20111;-72
2022/05/19 04:37:04;;;;;;;24.02;3.75;;;;;;;10.68;63.34;99987.28;4485619;31;20085;-72
2022/05/19 04:39:31;;;;;;;5.78;2.50;;;;;;;10.99;63.07;99993.81;4484127;31;20096;-72
2022/05/19 04:41:58;;;;;;;4.65;2.28;;;;;;;11.46;59.90;99983.47;4485367;31;20223;-73
2022/05/19 04:44:26;;;;;;;4.53;2.53;;;;;;;11.85;57.12;99991.97;4485817;31;20088;-72
2022/05/19 04:46:53;;;;;;;3.90;2.50;;;;;;;12.19;55.73;99978.91;4484153;32;20115;-73
2022/05/19 04:49:20;;;;;;;5.70;2.42;;;;;;;12.39;53.70;99982.62;4485592;32;20199;-72
2022/05/19 04:51:47;;;;;;;4.82;2.85;;;;;;;12.62;53.32;99982.62;4484428;31;20088;-72
2022/05/19 04:54:14;;;;;;;9.52;3.03;;;;;;;12.76;53.25;99987.66;4479589;31;20092;-73
2022/05/19 04:56:43;;;;;;;12.73;3.72;;;;;;;12.96;51.75;99988.69;4481533;31;20152;-73
2022/05/19 04:59:14;;;;;;;12.02;3.30;;;;;;;12.98;52.13;99985.94;4478938;31;20569;-71
2022/05/19 05:01:47;;;;;;;9.25;3.10;;;;;;;13.19;52.17;99986.00;4472395;32;20115;-72
2022/05/19 05:04:15;;;;;;;7.93;3.45;;;;;;;13.41;51.88;99976.41;4472756;32;20099;-73
2022/05/19 05:06:42;;;;;;;14.63;3.42;;;;;;;13.53;50.97;99985.91;4477874;32;20167;-72
2022/05/19 05:09:09;;;;;;;11.55;3.60;;;;;;;13.71;51.80;99986.19;4473658;31;20096;-72
2022/05/19 05:11:39;;;;;;;13.62;3.10;;;;;;;13.92;51.25;99990.66;4479401;31;20096;-72
2022/05/19 05:14:08;;;;;;;14.00;3.62;;;;;;;14.05;50.70;99991.28;4479909;32;20160;-72
2022/05/19 05:16:35;;;;;;;11.57;3.30;;;;;;;14.11;50.14;99984.66;4471923;31;20432;-72
2022/05/19 05:19:04;;;;;;;5.70;3.00;;;;;;;14.29;49.04;99991.00;4469194;32;20153;-73
2022/05/19 05:21:31;;;;;;;23.70;3.05;;;;;;;14.27;46.62;100000.84;4477807;32;20156;-73
2022/05/19 05:23:58;;;;;;;6.07;2.72;;;;;;;14.21;46.50;99996.09;4469972;32;20474;-72
2022/05/19 05:26:25;;;;;;;13.73;2.97;;;;;;;14.36;46.18;99997.41;4475683;31;20083;-73
2022/05/19 05:28:52;;;;;;;8.00;2.95;;;;;;;14.58;45.49;100000.88;4478403;31;20484;-74
2022/05/19 05:31:20;;;;;;;16.35;2.95;;;;;;;14.76;44.66;100005.53;4465893;31;20998;-73
2022/05/19 05:33:47;;;;;;;12.52;2.53;;;;;;;14.92;45.22;100005.84;4469199;32;20179;-73
2022/05/19 05:36:14;;;;;;;6.57;2.80;;;;;;;15.00;45.46;100008.66;4478111;32;20096;-71
2022/05/19 05:38:41;;;;;;;20.98;3.12;;;;;;;14.87;44.33;100016.81;4470619;32;20084;-73
2022/05/19 05:41:08;;;;;;;9.52;3.10;;;;;;;14.94;43.61;100011.81;4476443;32;20153;-73
2022/05/19 05:43:39;;;;;;;17.48;3.53;;;;;;;15.13;43.85;100018.97;4475764;32;20152;-73
2022/05/19 05:46:09;;;;;;;15.88;3.20;;;;;;;15.25;43.97;100023.16;4480632;31;20126;-73
2022/05/19 05:48:37;;;;;;;24.08;2.97;;;;;;;15.35;43.80;100020.53;4469116;32;20135;-73
2022/05/19 05:51:08;;;;;;;7.80;3.22;;;;;;;15.42;44.04;100019.00;4477355;31;20130;-74
2022/05/19 05:53:36;;;;;;;24.90;3.28;;;;;;;15.70;43.79;100037.66;4479164;31;20087;-73
2022/05/19 05:56:05;;;;;;;18.37;3.15;;;;;;;15.94;43.51;100034.63;4468160;31;20100;-74
2022/05/19 05:58:32;;;;;;;11.60;3.72;;;;;;;16.02;41.62;100028.62;4482082;31;20151;-73
2022/05/19 06:01:05;;;;;;;13.20;3.50;;;;;;;16.11;43.11;100032.25;4477099;31;20123;-73
2022/05/19 06:03:33;;;;;;;7.30;3.10;;;;;;;16.23;42.00;100030.25;4471918;31;113294;-73
2022/05/19 06:06:01;;;;;;;11.63;4.05;;;;;;;16.31;42.27;100022.47;4475797;32;20145;-73
2022/05/19 06:08:31;;;;;;;18.33;3.60;;;;;;;16.54;42.21;100022.12;4474296;32;20166;-74
2022/05/19 06:11:01;;;;;;;17.52;3.85;;;;;;;16.61;42.57;100020.56;4477592;31;20139;-74
2022/05/19 06:13:28;;;;;;;19.98;5.05;;;;;;;16.63;43.82;100024.72;4481050;32;20092;-74
2022/05/19 06:15:56;;;;;;;9.10;3.20;;;;;;;16.76;44.38;100024.38;4472256;31;20096;-72
2022/05/19 06:18:25;;;;;;;7.70;4.00;;;;;;;16.79;42.39;100025.88;4469827;31;20169;-73
2022/05/19 06:20:53;;;;;;;17.90;4.25;;;;;;;16.77;43.33;100031.31;4474595;32;20103;-72
2022/05/19 06:23:20;;;;;;;12.80;3.42;;;;;;;16.88;41.44;100021.56;4468458;31;20101;-71
2022/05/19 06:25:48;;;;;;;6.95;3.65;;;;;;;16.70;42.56;100030.28;4473634;32;20475;-72
2022/05/19 06:28:15;;;;;;;9.18;2.83;;;;;;;16.77;42.28;100028.69;4483961;31;20085;-72
2022/05/19 06:30:42;;;;;;;8.05;3.95;;;;;;;16.95;44.38;100030.59;4480157;31;20143;-72
2022/05/19 06:33:12;;;;;;;6.05;3.67;;;;;;;17.02;45.45;100031.69;4472565;32;20206;-72
2022/05/19 06:35:41;;;;;;;5.85;2.30;;;;;;;17.15;44.25;100033.97;4468347;32;20101;-73
2022/05/19 06:38:08;;;;;;;2.33;1.80;;;;;;;17.38;43.31;100034.38;4469084;32;20162;-72
2022/05/19 06:40:35;;;;;;;4.12;2.17;;;;;;;17.51;42.05;100040.13;4478446;31;20097;-73
2022/05/19 06:43:10;;;;;;;6.80;3.15;;;;;;;17.52;41.21;100031.22;4474346;31;20115;-72
2022/05/19 06:45:40;;;;;;;8.65;2.30;;;;;;;17.53;40.97;100032.88;4468625;32;20088;-71
2022/05/19 06:48:07;;;;;;;6.97;2.58;;;;;;;17.55;42.04;100028.25;4482200;32;20747;-72
2022/05/19 06:50:35;;;;;;;5.82;1.98;;;;;;;17.79;41.34;100029.47;4483660;31;20122;-73
2022/05/19 06:53:03;;;;;;;6.22;2.03;;;;;;;17.88;39.69;100033.84;4474277;32;20153;-72
2022/05/19 06:55:35;;;;;;;8.77;2.87;;;;;;;17.71;40.14;100032.03;4473787;31;20084;-74
2022/05/19 06:58:03;;;;;;;7.37;2.62;;;;;;;17.71;39.65;100034.69;4485743;31;20135;-72
2022/05/19 07:00:31;;;;;;;5.95;2.30;;;;;;;17.88;40.50;100035.66;4479021;31;20442;-73
2022/05/19 07:03:00;;;;;;;5.70;1.85;;;;;;;18.09;39.13;100040.66;4475713;31;20123;-72
2022/05/19 07:05:31;;;;;;;4.80;1.98;;;;;;;18.27;38.50;100043.25;4478947;32;20165;-72
2022/05/19 07:07:58;;;;;;;5.18;2.10;;;;;;;18.18;32.95;100037.09;4482128;31;20401;-72
2022/05/19 07:10:27;;;;;;;2.58;1.52;;;;;;;18.24;37.95;100044.44;4481915;31;20141;-72
2022/05/19 07:12:56;;;;;;;1.83;1.02;;;;;;;18.38;32.14;100036.87;4474853;31;20159;-73
2022/05/19 07:15:24;;;;;;;4.85;1.48;;;;;;;18.37;31.18;100044.00;4478056;31;20077;-73
2022/05/19 07:17:51;;;;;;;3.42;1.52;;;;;;;18.28;33.86;100044.94;4477297;32;20139;-72
2022/05/19 07:23:06;;;;;;;1.87;1.40;;;;;;;18.58;36.63;100038.31;4474268;31;20198;-73
2022/05/19 07:25:35;;;;;;;1.73;1.20;;;;;;;18.75;35.91;100039.22;4472506;31;20157;-73
2022/05/19 07:28:02;;;;;;;6.80;1.35;;;;;;;18.78;31.82;100038.09;4476643;31;20166;-73
2022/05/19 07:30:29;;;;;;;13.93;1.85;;;;;;;18.76;33.43;100034.78;4473385;31;20118;-72
2022/05/19 07:33:00;;;;;;;5.82;1.55;;;;;;;18.86;30.49;100043.44;4474694;32;20697;-72
2022/05/19 07:35:28;;;;;;;4.28;1.73;;;;;;;18.70;33.77;100041.53;4471324;31;20101;-72
2022/05/19 07:37:55;;;;;;;3.80;1.65;;;;;;;18.83;34.98;100035.78;4472933;31;21187;-73
2022/05/19 07:40:22;;;;;;;6.20;2.05;;;;;;;18.82;32.56;100035.94;4475123;31;20084;-71
2022/05/19 07:42:49;;;;;;;6.18;2.22;;;;;;;18.90;33.20;100039.50;4479248;31;20184;-72
2022/05/19 07:45:17;;;;;;;9.52;2.45;;;;;;;18.93;33.73;100036.53;4472290;31;20455;-71
2022/05/19 07:47:45;;;;;;;3.20;1.42;;;;;;;18.91;33.89;100041.16;4483542;31;20510;-72
2022/05/19 07:50:14;;;;;;;2.45;0.80;;;;;;;19.06;32.92;100041.41;4470740;31;20088;-71
2022/05/19 07:52:41;;;;;;;2.35;1.10;;;;;;;18.85;29.97;100033.84;4472450;32;20192;-72
2022/05/19 07:55:09;;;;;;;3.95;1.60;;;;;;;18.71;30.97;100037.06;4484861;31;20164;-71
2022/05/19 07:57:36;;;;;;;6.95;1.05;;;;;;;18.85;29.62;100035.62;4471935;31;20097;-72
2022/05/19 08:00:05;;;;;;;1.87;1.23;;;;;;;19.11;31.21;100033.75;4479840;32;20104;-72
2022/05/19 08:02:39;;;;;;;2.87;1.00;;;;;;;19.19;31.39;100040.91;4476130;31;20118;-72
2022/05/19 08:05:07;;;;;;;1.95;1.05;;;;;;;19.24;32.42;100038.62;4477942;32;20104;-72
2022/05/19 08:07:34;;;;;;;2.53;1.30;;;;;;;19.31;30.29;100036.13;4479014;31;20135;-72
2022/05/19 08:10:20;;;;;;;4.25;1.23;;;;;;;19.46;30.94;100036.34;4475693;31;20088;-72
2022/05/19 08:15:35;;;;;;;2.75;1.12;;;;;;;19.59;30.43;100042.00;4471854;32;20097;-72
2022/05/19 08:18:25;;;;;;;6.25;1.00;;;;;;;19.42;30.56;100035.00;4472964;32;20161;-72
2022/05/19 08:20:57;;;;;;;3.25;0.80;;;;;;;19.54;29.93;100039.00;4477889;32;20439;-73
2022/05/19 08:23:34;;;;;;;2.05;1.15;;;;;;;19.75;28.64;100030.53;4480451;32;20208;-72
2022/05/19 08:26:02;;;;;;;7.70;0.95;;;;;;;19.83;29.22;100043.03;4471689;31;20509;-72
2022/05/19 08:28:32;;;;;;;3.37;0.80;;;;;;;19.97;28.81;100038.88;4474704;31;20097;-72
2022/05/19 08:31:10;;;;;;;6.95;1.10;;;;;;;20.00;28.77;100039.41;4475196;31;20248;-72
2022/05/19 08:33:40;;;;;;;3.33;0.90;;;;;;;19.80;27.24;100028.28;4466405;31;20164;-72
2022/05/19 08:36:08;;;;;;;2.40;0.88;;;;;;;19.71;27.88;100031.88;4471883;31;20104;-71
2022/05/19 08:38:36;;;;;;;5.45;0.68;;;;;;;19.68;28.28;100035.72;4468957;32;20092;-72
2022/05/19 08:41:25;;;;;;;3.25;1.12;;;;;;;19.85;27.80;100031.25;4471506;32;20108;-72
2022/05/19 08:44:14;;;;;;;2.50;0.90;;;;;;;20.18;32.24;100031.22;4476629;32;20151;-72
2022/05/19 08:46:47;;;;;;;3.60;0.80;;;;;;;20.24;28.91;100040.34;4472638;31;20127;-72
2022/05/19 08:49:42;;;;;;;2.50;1.02;;;;;;;20.31;28.79;100035.19;4473009;32;20142;-72
2022/05/19 08:52:13;;;;;;;2.78;0.62;;;;;;;20.46;28.78;100032.69;4471469;32;20152;-73
2022/05/19 08:54:45;;;;;;;16.05;1.40;;;;;;;20.52;29.76;100032.00;4478090;32;20115;-72
2022/05/19 08:57:19;;;;;;;3.17;0.95;;;;;;;20.52;26.54;100037.31;4477409;32;20088;-73
2022/05/19 09:00:09;;;;;;;5.78;0.80;;;;;;;20.39;26.06;100029.84;4473053;31;20121;-73
2022/05/19 09:02:54;;;;;;;2.03;0.85;;;;;;;20.61;29.28;100020.31;4475919;31;20139;-73
2022/05/19 09:05:30;;;;;;;2.33;0.90;;;;;;;20.62;26.03;100018.47;4474109;32;20088;-73
2022/05/19 09:08:07;;;;;;;3.15;0.77;;;;;;;20.63;27.36;100028.94;4483856;31;20096;-73
2022/05/19 09:10:46;;;;;;;2.08;0.80;;;;;;;20.71;25.54;100026.31;4482381;31;20134;-73
2022/05/19 09:13:16;;;;;;;7.32;1.00;;;;;;;21.01;29.34;100020.34;4482945;31;20172;-73
2022/05/19 09:15:45;;;;;;;3.60;0.85;;;;;;;21.25;29.66;100006.87;4479091;31;20127;-73
2022/05/19 09:18:15;;;;;;;6.28;0.70;;;;;;;21.40;27.32;100019.47;4480095;32;20092;-73
2022/05/19 09:20:54;;;;;;;8.65;1.10;;;;;;;21.40;27.94;100009.59;4480319;32;20099;-74
2022/05/19 09:23:23;;;;;;;5.25;0.93;;;;;;;21.43;29.83;100003.09;4471974;31;20093;-74
2022/05/19 09:25:54;;;;;;;6.72;1.15;;;;;;;21.57;28.96;100006.87;4472832;31;20116;-73
2022/05/19 09:28:22;;;;;;;5.00;0.98;;;;;;;21.66;25.67;100005.78;4475347;31;20196;-74
2022/05/19 09:30:54;;;;;;;7.18;1.10;;;;;;;21.39;27.99;100007.97;4471611;31;20128;-74
2022/05/19 09:33:30;;;;;;;2.05;0.70;;;;;;;21.60;27.05;100010.03;4471590;31;20493;-74
2022/05/19 09:36:01;;;;;;;5.22;0.90;;;;;;;21.66;27.93;100008.47;4474880;32;20134;-74
2022/05/19 09:38:28;;;;;;;1.52;0.70;;;;;;;21.71;27.24;100011.44;4480360;31;20093;-74
2022/05/19 09:41:03;;;;;;;1.40;0.90;;;;;;;21.78;28.43;100011.53;4460236;31;20101;-74
2022/05/19 09:43:36;;;;;;;1.02;0.77;;;;;;;21.75;28.46;100003.88;4470672;31;20104;-74
2022/05/19 09:46:09;;;;;;;2.55;0.73;;;;;;;21.82;30.17;100009.31;4469276;31;20103;-74
2022/05/19 09:48:43;;;;;;;3.97;0.65;;;;;;;21.72;27.49;100004.25;4473305;31;20419;-72
2022/05/19 09:51:15;;;;;;;6.10;0.82;;;;;;;21.94;28.71;100000.72;4472243;31;20093;-74
2022/05/19 09:53:53;;;;;;;2.15;1.15;;;;;;;22.00;28.05;99995.66;4471023;31;21083;-74
2022/05/19 09:56:22;;;;;;;1.20;0.80;;;;;;;22.26;27.01;99993.41;4471354;32;20097;-76
2022/05/19 09:58:52;;;;;;;1.05;0.68;;;;;;;22.20;27.05;99994.13;4475828;32;20107;-75
2022/05/19 10:01:34;;;;;;;3.12;1.87;;;;;;;22.30;27.54;99996.53;4472435;32;20970;-74
2022/05/19 10:04:07;;;;;;;3.28;1.08;;;;;;;22.00;26.26;99993.00;4468208;32;20148;-75
2022/05/19 10:06:39;;;;;;;3.33;0.80;;;;;;;22.10;25.95;99978.37;4469147;32;20096;-73
2022/05/19 10:09:13;;;;;;;4.20;0.70;;;;;;;22.00;26.21;99987.66;4470363;32;20092;-75
2022/05/19 10:11:51;;;;;;;2.80;0.80;;;;;;;22.04;25.14;99986.28;4482063;32;20428;-74
2022/05/19 10:14:28;;;;;;;1.60;0.70;;;;;;;22.19;28.95;99976.44;4478653;31;20164;-74
2022/05/19 10:17:40;;;;;;;2.05;0.80;;;;;;;22.52;26.34;99972.63;4477405;31;20080;-73
2022/05/19 10:20:11;;;;;;;1.42;0.80;;;;;;;22.60;25.56;99972.53;4434908;32;20172;-74
2022/05/19 10:23:07;;;;;;;8.98;0.70;;;;;;;22.49;24.76;99973.81;4445135;32;20537;-73
2022/05/19 10:25:52;;;;;;;2.75;0.68;;;;;;;22.45;23.95;99976.03;4435970;32;20112;-74
2022/05/19 10:31:51;;;;;;;6.22;0.80;;;;;;;22.59;25.83;99968.19;4432758;32;20113;-75
2022/05/19 10:34:20;;;;;;;2.95;0.60;;;;;;;22.81;26.62;99969.91;4425502;32;20144;-75
2022/05/19 10:36:53;;;;;;;1.40;0.75;;;;;;;23.02;27.07;99950.41;4434983;32;20305;-74
2022/05/19 10:39:23;;;;;;;2.08;0.70;;;;;;;23.15;24.92;99954.25;4428615;32;20117;-74
2022/05/19 10:42:06;;;;;;;2.03;0.60;;;;;;;23.01;24.04;99947.91;4432795;32;21129;-74
2022/05/19 10:44:39;;;;;;;10.88;0.80;;;;;;;22.77;23.35;99941.94;4437461;32;20109;-73
2022/05/19 10:47:27;;;;;;;1.75;0.43;;;;;;;22.81;24.30;99939.69;4437872;32;20128;-73
2022/05/19 10:50:16;;;;;;;1.37;0.68;;;;;;;22.98;24.87;99940.28;4440467;32;20608;-72
2022/05/19 10:53:05;;;;;;;3.35;0.60;;;;;;;23.14;25.49;99942.75;4422865;32;20303;-73
2022/05/19 10:55:35;;;;;;;5.95;0.75;;;;;;;23.42;24.64;99939.28;4472890;32;20815;-73
2022/05/19 10:58:06;;;;;;;2.67;0.70;;;;;;;23.53;25.79;99928.09;4468213;32;20092;-73
2022/05/19 11:00:56;;;;;;;6.78;1.23;;;;;;;23.65;27.67;99927.53;4474201;32;20107;-72
2022/05/19 11:03:44;;;;;;;1.67;0.70;;;;;;;23.69;23.87;99920.78;4468722;31;20124;-73
2022/05/19 11:06:36;;;;;;;3.33;0.88;;;;;;;23.52;23.51;99917.59;4473404;31;20123;-75
2022/05/19 11:09:29;;;;;;;4.05;0.80;;;;;;;23.13;23.13;99921.56;4477839;31;20166;-75
2022/05/19 11:12:08;;;;;;;1.58;0.90;;;;;;;23.37;26.70;99913.12;4476431;32;20566;-73
2022/05/19 11:15:02;;;;;;;2.62;0.80;;;;;;;23.65;24.60;99911.50;4480885;32;20111;-76
2022/05/19 11:17:42;;;;;;;;;;;;;;;23.55;23.14;99912.66;4480347;31;20108;-74
2022/05/19 11:20:23;;;;;;;3.12;0.82;;;;;;;23.76;23.98;99910.16;4480001;32;20724;-72
2022/05/19 11:22:53;;;;;;;1.65;0.65;;;;;;;23.63;22.75;99902.84;4480255;32;20080;-73
2022/05/19 11:28:39;;;;;;;0.88;0.60;;;;;;;23.67;22.75;99901.44;4480433;32;20205;-73
2022/05/19 11:31:12;;;;;;;2.17;0.70;;;;;;;23.90;22.15;99894.00;4474164;31;20160;-73
2022/05/19 11:33:41;;;;;;;2.08;0.60;;;;;;;23.91;20.42;99886.81;4484708;31;20906;-74
2022/05/19 11:36:22;;;;;;;2.80;0.75;;;;;;;23.82;23.36;99875.41;4483786;31;20113;-73
2022/05/19 11:39:30;;;;;;;3.17;1.33;;;;;;;24.13;25.55;99879.50;4476925;31;20564;-73
2022/05/19 11:42:10;;;;;;;1.60;1.05;;;;;;;24.44;23.13;99878.22;4417493;32;20105;-72
2022/05/19 11:44:38;;;;;;;1.45;0.70;;;;;;;24.55;23.22;99874.13;4420229;32;20082;-72
2022/05/19 11:57:04;;;;;;;0.90;0.75;;;;;;;24.31;22.05;99865.59;4372981;32;20520;-73
2022/05/19 11:59:47;;;;;;;4.50;0.98;;;;;;;24.86;22.01;99854.00;4521028;31;175675;-72
2022/05/19 12:02:18;;;;;;;2.17;1.17;;;;;;;24.86;22.01;99854.00;4510296;31;20150;-72
2022/05/19 12:04:47;;;;;;;1.12;0.80;;;;;;;24.63;23.79;99852.53;4506773;31;20132;-72
2022/05/19 12:07:23;;;;;;;6.07;0.70;;;;;;;24.85;22.87;99847.84;4503872;31;20440;-73
2022/05/19 12:09:56;;;;;;;2.62;0.70;;;;;;;24.79;22.83;99851.34;4501627;31;20119;-73
2022/05/19 12:12:29;;;;;;;8.57;0.90;;;;;;;24.73;21.79;99842.25;4504690;31;20122;-72
2022/05/19 12:15:19;;;;;;;1.45;1.10;;;;;;;24.80;23.45;99844.97;4500009;31;20099;-73